KEVB/EVB METAR and TAF weather

Enter ICAO airport designator
Station Type Date Time Source
KEVB METAR 2020/03/29 14:47 UTC NOAA

KEVB 291447Z 21010KT 10SM CLR 26/20 A3019


Station Type Date Time Source
KEVB Decoded METAR 2020/03/29 14:47 UTC NOAA

New Smyrna Beach, New Smyrna Beach Municipal Airport, FL, United States (KEVB) 29-03-20N 080-56-54W
Mar 29, 2020 - 10:47 AM EDT / 2020.03.29 1447 UTC
Wind: from the SSW (210 degrees) at 12 MPH (10 KT):0
Visibility: 10 mile(s):0
Sky conditions: clear
Temperature: 78 F (26 C)
Dew Point: 68 F (20 C)
Relative Humidity: 69%
Pressure (altimeter): 30.19 in. Hg (1022 hPa)
ob: KEVB 291447Z 21010KT 10SM CLR 26/20 A3019
cycle: 15

Station Type Date Time Source
KEVB TAF UTC NOAA

Error!

Example: see airport list